RYR364M EGHQ-LEMG
Flight info
| Callsign | RYR364M |
|---|---|
| Flight time | 2h 13m |
| Altitude | 35000 |
| Route | LND DCT AMPOP DCT KORUL DCT VES DCT OMESI M30 ZMR/N0462F360 L155 NVS/N0463F350 Z230 TLD N864 VULPE |
| Aircraft | B738/M-SDE2E3FGHIRWXY/LB1 |
Departure
| Time | 2026-05-05 14:12 |
|---|---|
| Airport | Cornwall Airport Newquay (EGHQ) |
Arrival
| Time | 2026-05-05 16:25 |
|---|---|
| Airport | Málaga-Costa del Sol Airport (LEMG) |
| Time | Latitude | Longitude | Altitude | Speed | Heading |
|---|---|---|---|---|---|
| 2026-05-05 13:29 | 50.44619 | -5.00315 | 330 ft | 0 kts | 72° |
| 2026-05-05 13:59 | 50.44612 | -5.00354 | 326 ft | 3 kts | 78° |
| 2026-05-05 13:59 | 50.44609 | -5.00387 | 327 ft | 13 kts | 92° |
| 2026-05-05 14:00 | 50.44615 | -5.00422 | 328 ft | 3 kts | 120° |
| 2026-05-05 14:00 | 50.44614 | -5.00422 | 328 ft | 0 kts | 120° |
| 2026-05-05 14:05 | 50.44614 | -5.00421 | 331 ft | 1 kts | 121° |
| 2026-05-05 14:05 | 50.44599 | -5.00383 | 331 ft | 9 kts | 122° |
| 2026-05-05 14:05 | 50.44561 | -5.00280 | 331 ft | 13 kts | 121° |
| 2026-05-05 14:06 | 50.44514 | -5.00156 | 336 ft | 13 kts | 120° |
| 2026-05-05 14:06 | 50.44468 | -5.00028 | 336 ft | 14 kts | 118° |
| 2026-05-05 14:06 | 50.44421 | -4.99903 | 339 ft | 13 kts | 121° |
| 2026-05-05 14:06 | 50.44367 | -4.99760 | 338 ft | 18 kts | 119° |
| 2026-05-05 14:07 | 50.44297 | -4.99587 | 337 ft | 18 kts | 121° |
| 2026-05-05 14:07 | 50.44236 | -4.99417 | 335 ft | 18 kts | 120° |
| 2026-05-05 14:07 | 50.44174 | -4.99255 | 348 ft | 17 kts | 120° |
| 2026-05-05 14:07 | 50.44116 | -4.99098 | 346 ft | 16 kts | 127° |
| 2026-05-05 14:08 | 50.44058 | -4.98945 | 350 ft | 17 kts | 122° |
| 2026-05-05 14:08 | 50.43992 | -4.98768 | 347 ft | 20 kts | 123° |
| 2026-05-05 14:08 | 50.43923 | -4.98587 | 352 ft | 20 kts | 121° |
| 2026-05-05 14:08 | 50.43847 | -4.98385 | 349 ft | 22 kts | 118° |
| 2026-05-05 14:09 | 50.43770 | -4.98179 | 344 ft | 22 kts | 124° |
| 2026-05-05 14:09 | 50.43696 | -4.97975 | 354 ft | 21 kts | 125° |
| 2026-05-05 14:09 | 50.43598 | -4.97863 | 342 ft | 13 kts | 161° |
| 2026-05-05 14:09 | 50.43530 | -4.97851 | 336 ft | 8 kts | 184° |
| 2026-05-05 14:10 | 50.43485 | -4.97901 | 341 ft | 8 kts | 250° |
| 2026-05-05 14:10 | 50.43498 | -4.97987 | 338 ft | 8 kts | 297° |
| 2026-05-05 14:10 | 50.43506 | -4.98006 | 338 ft | 0 kts | 300° |
| 2026-05-05 14:11 | 50.43535 | -4.98082 | 337 ft | 32 kts | 302° |
| 2026-05-05 14:11 | 50.43781 | -4.98737 | 330 ft | 105 kts | 300° |
| 2026-05-05 14:11 | 50.44261 | -5.00009 | 360 ft | 162 kts | 303° |
| 2026-05-05 14:11 | 50.44852 | -5.01642 | 895 ft | 180 kts | 304° |
| 2026-05-05 14:12 | 50.45539 | -5.03358 | 1695 ft | 191 kts | 308° |
| 2026-05-05 14:12 | 50.46258 | -5.05138 | 2478 ft | 195 kts | 300° |
| 2026-05-05 14:12 | 50.46492 | -5.07231 | 3293 ft | 196 kts | 271° |
| 2026-05-05 14:12 | 50.46389 | -5.09329 | 4155 ft | 196 kts | 265° |
| 2026-05-05 14:13 | 50.45866 | -5.11397 | 4586 ft | 218 kts | 235° |
| 2026-05-05 14:13 | 50.44813 | -5.13281 | 4916 ft | 243 kts | 230° |
| 2026-05-05 14:13 | 50.43606 | -5.15300 | 5319 ft | 261 kts | 229° |
| 2026-05-05 14:13 | 50.42353 | -5.17385 | 6139 ft | 264 kts | 229° |
| 2026-05-05 14:14 | 50.41083 | -5.19483 | 6938 ft | 267 kts | 228° |
| 2026-05-05 14:14 | 50.39774 | -5.21604 | 7622 ft | 274 kts | 228° |
| 2026-05-05 14:14 | 50.38431 | -5.23771 | 8339 ft | 279 kts | 228° |
| 2026-05-05 14:14 | 50.37066 | -5.25975 | 9077 ft | 284 kts | 228° |
| 2026-05-05 14:15 | 50.35676 | -5.28218 | 9824 ft | 289 kts | 228° |
| 2026-05-05 14:15 | 50.34266 | -5.30501 | 10441 ft | 297 kts | 227° |
| 2026-05-05 14:15 | 50.32778 | -5.32911 | 10687 ft | 319 kts | 227° |
| 2026-05-05 14:15 | 50.31183 | -5.35493 | 10870 ft | 341 kts | 227° |
| 2026-05-05 14:16 | 50.29481 | -5.38242 | 11036 ft | 362 kts | 227° |
| 2026-05-05 14:16 | 50.27699 | -5.41114 | 11470 ft | 373 kts | 227° |
| 2026-05-05 14:16 | 50.25879 | -5.44044 | 12097 ft | 378 kts | 227° |
| 2026-05-05 14:16 | 50.24037 | -5.47007 | 12740 ft | 382 kts | 226° |
| 2026-05-05 14:17 | 50.22177 | -5.49995 | 13382 ft | 386 kts | 226° |
| 2026-05-05 14:17 | 50.20293 | -5.53021 | 14022 ft | 390 kts | 226° |
| 2026-05-05 14:17 | 50.18393 | -5.56070 | 14602 ft | 394 kts | 226° |
| 2026-05-05 14:17 | 50.16469 | -5.59152 | 15180 ft | 398 kts | 226° |
| 2026-05-05 14:18 | 50.14513 | -5.62242 | 15719 ft | 403 kts | 224° |
| 2026-05-05 14:18 | 50.12289 | -5.64945 | 16262 ft | 408 kts | 212° |
| 2026-05-05 14:18 | 50.09794 | -5.67111 | 16792 ft | 413 kts | 209° |
| 2026-05-05 14:18 | 50.07252 | -5.69247 | 17343 ft | 417 kts | 209° |
| 2026-05-05 14:19 | 50.04693 | -5.71397 | 17865 ft | 421 kts | 209° |
| 2026-05-05 14:19 | 50.02107 | -5.73580 | 18371 ft | 425 kts | 209° |
| 2026-05-05 14:19 | 49.99503 | -5.75791 | 18887 ft | 427 kts | 209° |
| 2026-05-05 14:19 | 49.96897 | -5.78010 | 19476 ft | 427 kts | 209° |
| 2026-05-05 14:20 | 49.94287 | -5.80234 | 19966 ft | 429 kts | 209° |
| 2026-05-05 14:20 | 49.91664 | -5.82467 | 20450 ft | 431 kts | 209° |
| 2026-05-05 14:20 | 49.89029 | -5.84709 | 20973 ft | 432 kts | 209° |
| 2026-05-05 14:20 | 49.86384 | -5.86956 | 21478 ft | 434 kts | 209° |
| 2026-05-05 14:21 | 49.83733 | -5.89205 | 21976 ft | 435 kts | 209° |
| 2026-05-05 14:21 | 49.81073 | -5.91458 | 22455 ft | 437 kts | 208° |
| 2026-05-05 14:21 | 49.78401 | -5.93719 | 22930 ft | 438 kts | 208° |
| 2026-05-05 14:21 | 49.75719 | -5.95985 | 23395 ft | 440 kts | 208° |
| 2026-05-05 14:22 | 49.73032 | -5.98252 | 23815 ft | 441 kts | 208° |
| 2026-05-05 14:22 | 49.70335 | -6.00526 | 24208 ft | 442 kts | 208° |
| 2026-05-05 14:22 | 49.67635 | -6.02800 | 24596 ft | 443 kts | 208° |
| 2026-05-05 14:22 | 49.64925 | -6.05078 | 24952 ft | 444 kts | 208° |
| 2026-05-05 14:23 | 49.62208 | -6.07360 | 25276 ft | 446 kts | 208° |
| 2026-05-05 14:23 | 49.59482 | -6.09648 | 25625 ft | 447 kts | 208° |
| 2026-05-05 14:23 | 49.56746 | -6.11939 | 25963 ft | 448 kts | 208° |
| 2026-05-05 14:23 | 49.53933 | -6.14007 | 26299 ft | 449 kts | 200° |
| 2026-05-05 14:24 | 49.50951 | -6.15411 | 26648 ft | 449 kts | 192° |
| 2026-05-05 14:24 | 49.47865 | -6.16110 | 26968 ft | 449 kts | 186° |
| 2026-05-05 14:24 | 49.44748 | -6.16639 | 27233 ft | 452 kts | 186° |
| 2026-05-05 14:24 | 49.41620 | -6.17165 | 27565 ft | 452 kts | 186° |
| 2026-05-05 14:25 | 49.38507 | -6.17695 | 28059 ft | 449 kts | 186° |
| 2026-05-05 14:25 | 49.35405 | -6.18230 | 28478 ft | 448 kts | 186° |
| 2026-05-05 14:25 | 49.32319 | -6.18770 | 28894 ft | 446 kts | 186° |
| 2026-05-05 14:25 | 49.29233 | -6.19313 | 29281 ft | 446 kts | 186° |
| 2026-05-05 14:26 | 49.26159 | -6.19856 | 29682 ft | 445 kts | 186° |
| 2026-05-05 14:26 | 49.23086 | -6.20400 | 30072 ft | 444 kts | 186° |
| 2026-05-05 14:26 | 49.20024 | -6.20942 | 30372 ft | 443 kts | 186° |
| 2026-05-05 14:26 | 49.16952 | -6.21485 | 30615 ft | 445 kts | 186° |
| 2026-05-05 14:27 | 49.13878 | -6.22028 | 30867 ft | 445 kts | 186° |
| 2026-05-05 14:27 | 49.10801 | -6.22570 | 31130 ft | 446 kts | 185° |
| 2026-05-05 14:27 | 49.07722 | -6.23112 | 31415 ft | 445 kts | 185° |
| 2026-05-05 14:27 | 49.04647 | -6.23653 | 31708 ft | 445 kts | 185° |
| 2026-05-05 14:28 | 49.01559 | -6.24196 | 31898 ft | 448 kts | 185° |
| 2026-05-05 14:28 | 48.98456 | -6.24741 | 32039 ft | 451 kts | 185° |
| 2026-05-05 14:28 | 48.95330 | -6.25288 | 32194 ft | 453 kts | 185° |
| 2026-05-05 14:28 | 48.92189 | -6.25838 | 32362 ft | 456 kts | 185° |
| 2026-05-05 14:29 | 48.89039 | -6.26388 | 32543 ft | 457 kts | 185° |
| 2026-05-05 14:29 | 48.85866 | -6.26942 | 32743 ft | 459 kts | 185° |
| 2026-05-05 14:29 | 48.82692 | -6.27495 | 32928 ft | 461 kts | 185° |
| 2026-05-05 14:29 | 48.79499 | -6.28052 | 33115 ft | 462 kts | 185° |
| 2026-05-05 14:30 | 48.76298 | -6.28609 | 33320 ft | 463 kts | 185° |
| 2026-05-05 14:30 | 48.73092 | -6.29166 | 33533 ft | 464 kts | 186° |
| 2026-05-05 14:30 | 48.69873 | -6.29724 | 33754 ft | 465 kts | 186° |
| 2026-05-05 14:30 | 48.66664 | -6.30280 | 34024 ft | 464 kts | 186° |
| 2026-05-05 14:31 | 48.63455 | -6.30834 | 34272 ft | 463 kts | 186° |
| 2026-05-05 14:31 | 48.60257 | -6.31387 | 34501 ft | 463 kts | 186° |
| 2026-05-05 14:31 | 48.57050 | -6.31940 | 34686 ft | 463 kts | 186° |
| 2026-05-05 14:31 | 48.53850 | -6.32491 | 34908 ft | 463 kts | 186° |
| 2026-05-05 14:32 | 48.47420 | -6.33597 | 35021 ft | 468 kts | 186° |
| 2026-05-05 14:32 | 48.40897 | -6.34716 | 35017 ft | 475 kts | 186° |
| 2026-05-05 14:33 | 48.34300 | -6.35845 | 35017 ft | 479 kts | 186° |
| 2026-05-05 14:33 | 48.27651 | -6.36980 | 35011 ft | 482 kts | 186° |
| 2026-05-05 14:34 | 48.20973 | -6.38117 | 35013 ft | 484 kts | 186° |
| 2026-05-05 14:34 | 48.14290 | -6.39252 | 35012 ft | 483 kts | 186° |
| 2026-05-05 14:35 | 48.07613 | -6.40382 | 35014 ft | 482 kts | 186° |
| 2026-05-05 14:35 | 48.00972 | -6.41504 | 35013 ft | 478 kts | 186° |
| 2026-05-05 14:36 | 47.94369 | -6.42616 | 35008 ft | 478 kts | 186° |
| 2026-05-05 14:36 | 47.87744 | -6.43729 | 35015 ft | 480 kts | 186° |
| 2026-05-05 14:37 | 47.81101 | -6.44842 | 35012 ft | 481 kts | 186° |
| 2026-05-05 14:37 | 47.74447 | -6.45954 | 35016 ft | 480 kts | 185° |
| 2026-05-05 14:38 | 47.67786 | -6.47066 | 35011 ft | 478 kts | 185° |
| 2026-05-05 14:38 | 47.62286 | -6.47980 | 35013 ft | 480 kts | 185° |
| 2026-05-05 14:39 | 47.55631 | -6.49084 | 35012 ft | 483 kts | 185° |
| 2026-05-05 14:39 | 47.48958 | -6.50189 | 35011 ft | 481 kts | 185° |
| 2026-05-05 14:40 | 47.42333 | -6.51283 | 35013 ft | 479 kts | 185° |
| 2026-05-05 14:40 | 47.35735 | -6.52370 | 35011 ft | 476 kts | 185° |
| 2026-05-05 14:41 | 47.29136 | -6.53454 | 35013 ft | 478 kts | 185° |
| 2026-05-05 14:41 | 47.22516 | -6.54538 | 35014 ft | 479 kts | 186° |
| 2026-05-05 14:42 | 47.15923 | -6.55616 | 35014 ft | 475 kts | 186° |
| 2026-05-05 14:42 | 47.09346 | -6.56688 | 35016 ft | 475 kts | 186° |
| 2026-05-05 14:43 | 47.02768 | -6.57758 | 35016 ft | 476 kts | 186° |
| 2026-05-05 14:43 | 46.96185 | -6.58826 | 35005 ft | 476 kts | 186° |
| 2026-05-05 14:44 | 46.89610 | -6.59890 | 35018 ft | 475 kts | 186° |
| 2026-05-05 14:44 | 46.83036 | -6.60951 | 35017 ft | 475 kts | 186° |
| 2026-05-05 14:45 | 46.76459 | -6.62010 | 35015 ft | 476 kts | 186° |
| 2026-05-05 14:45 | 46.69875 | -6.63068 | 35013 ft | 476 kts | 186° |
| 2026-05-05 14:46 | 46.63292 | -6.64122 | 35008 ft | 476 kts | 186° |
| 2026-05-05 14:46 | 46.56702 | -6.65176 | 35016 ft | 476 kts | 186° |
| 2026-05-05 14:47 | 46.50111 | -6.66227 | 35013 ft | 476 kts | 186° |
| 2026-05-05 14:47 | 46.43530 | -6.67274 | 35018 ft | 476 kts | 186° |
| 2026-05-05 14:48 | 46.36942 | -6.68319 | 35016 ft | 476 kts | 186° |
| 2026-05-05 14:48 | 46.30350 | -6.69363 | 35023 ft | 477 kts | 186° |
| 2026-05-05 14:49 | 46.23758 | -6.70404 | 35018 ft | 477 kts | 186° |
| 2026-05-05 14:49 | 46.17156 | -6.71444 | 35013 ft | 477 kts | 186° |
| 2026-05-05 14:50 | 46.10554 | -6.72481 | 35023 ft | 478 kts | 186° |
| 2026-05-05 14:50 | 46.03942 | -6.73518 | 35020 ft | 478 kts | 186° |
| 2026-05-05 14:51 | 45.97328 | -6.74552 | 35025 ft | 478 kts | 186° |
| 2026-05-05 14:51 | 45.90709 | -6.75585 | 35020 ft | 478 kts | 186° |
| 2026-05-05 14:52 | 45.84083 | -6.76616 | 35022 ft | 479 kts | 186° |
| 2026-05-05 14:52 | 45.77456 | -6.77645 | 35023 ft | 479 kts | 186° |
| 2026-05-05 14:53 | 45.70823 | -6.78673 | 35025 ft | 480 kts | 186° |
| 2026-05-05 14:53 | 45.64184 | -6.79699 | 35024 ft | 480 kts | 187° |
| 2026-05-05 14:54 | 45.57545 | -6.80722 | 35019 ft | 480 kts | 187° |
| 2026-05-05 14:54 | 45.50904 | -6.81743 | 35025 ft | 480 kts | 187° |
| 2026-05-05 14:55 | 45.44256 | -6.82763 | 35025 ft | 480 kts | 187° |
| 2026-05-05 14:55 | 45.37609 | -6.83781 | 35029 ft | 480 kts | 187° |
| 2026-05-05 14:56 | 45.30959 | -6.84796 | 35026 ft | 481 kts | 187° |
| 2026-05-05 14:56 | 45.24306 | -6.85810 | 35028 ft | 481 kts | 187° |
| 2026-05-05 14:57 | 45.17643 | -6.86823 | 35028 ft | 481 kts | 187° |
| 2026-05-05 14:57 | 45.10986 | -6.87832 | 35029 ft | 481 kts | 187° |
| 2026-05-05 14:58 | 45.04322 | -6.88841 | 35030 ft | 482 kts | 187° |
| 2026-05-05 14:58 | 44.97657 | -6.89847 | 35026 ft | 482 kts | 187° |
| 2026-05-05 14:59 | 44.90994 | -6.90850 | 35027 ft | 482 kts | 187° |
| 2026-05-05 14:59 | 44.84309 | -6.91012 | 35037 ft | 483 kts | 171° |
| 2026-05-05 15:00 | 44.78918 | -6.88773 | 35015 ft | 484 kts | 153° |
| 2026-05-05 15:00 | 44.71995 | -6.83662 | 35029 ft | 484 kts | 152° |
| 2026-05-05 15:01 | 44.66002 | -6.79228 | 35030 ft | 483 kts | 152° |
| 2026-05-05 15:01 | 44.60033 | -6.74868 | 35031 ft | 484 kts | 153° |
| 2026-05-05 15:02 | 44.54053 | -6.70534 | 35031 ft | 484 kts | 153° |
| 2026-05-05 15:02 | 44.48113 | -6.66244 | 35019 ft | 483 kts | 153° |
| 2026-05-05 15:03 | 44.42088 | -6.61901 | 35021 ft | 484 kts | 153° |
| 2026-05-05 15:03 | 44.36103 | -6.57597 | 35031 ft | 484 kts | 153° |
| 2026-05-05 15:04 | 44.30118 | -6.53302 | 35022 ft | 483 kts | 153° |
| 2026-05-05 15:04 | 44.24131 | -6.49016 | 35016 ft | 484 kts | 153° |
| 2026-05-05 15:05 | 44.15151 | -6.42605 | 35025 ft | 484 kts | 153° |
| 2026-05-05 15:06 | 44.09158 | -6.38338 | 35027 ft | 484 kts | 154° |
| 2026-05-05 15:06 | 44.03162 | -6.34080 | 35022 ft | 484 kts | 154° |
| 2026-05-05 15:07 | 43.97159 | -6.29826 | 35028 ft | 484 kts | 154° |
| 2026-05-05 15:07 | 43.91157 | -6.25582 | 35025 ft | 484 kts | 154° |
| 2026-05-05 15:08 | 43.85150 | -6.21345 | 35032 ft | 485 kts | 154° |
| 2026-05-05 15:08 | 43.79141 | -6.17116 | 35038 ft | 485 kts | 154° |
| 2026-05-05 15:09 | 43.73123 | -6.12889 | 35044 ft | 486 kts | 154° |
| 2026-05-05 15:09 | 43.67100 | -6.08668 | 35048 ft | 485 kts | 154° |
| 2026-05-05 15:10 | 43.61076 | -6.04455 | 35049 ft | 485 kts | 154° |
| 2026-05-05 15:10 | 43.54900 | -6.00741 | 35050 ft | 483 kts | 166° |
| 2026-05-05 15:11 | 43.48307 | -5.99241 | 35048 ft | 481 kts | 175° |
| 2026-05-05 15:11 | 43.41669 | -5.98073 | 35049 ft | 481 kts | 175° |
| 2026-05-05 15:12 | 43.35035 | -5.96858 | 35047 ft | 481 kts | 175° |
| 2026-05-05 15:12 | 43.28391 | -5.95623 | 35047 ft | 482 kts | 175° |
| 2026-05-05 15:13 | 43.21750 | -5.94389 | 35038 ft | 482 kts | 175° |
| 2026-05-05 15:13 | 43.15109 | -5.93160 | 35038 ft | 481 kts | 175° |
| 2026-05-05 15:14 | 43.08472 | -5.91934 | 35029 ft | 482 kts | 175° |
| 2026-05-05 15:14 | 43.01832 | -5.90712 | 35022 ft | 481 kts | 175° |
| 2026-05-05 15:15 | 42.95203 | -5.89493 | 35026 ft | 480 kts | 175° |
| 2026-05-05 15:15 | 42.88575 | -5.88277 | 35012 ft | 480 kts | 175° |
| 2026-05-05 15:16 | 42.81957 | -5.87065 | 35008 ft | 480 kts | 175° |
| 2026-05-05 15:16 | 42.75335 | -5.85855 | 34999 ft | 480 kts | 176° |
| 2026-05-05 15:17 | 42.68715 | -5.84648 | 34992 ft | 480 kts | 176° |
| 2026-05-05 15:17 | 42.63219 | -5.83648 | 34994 ft | 480 kts | 176° |
| 2026-05-05 15:18 | 42.56602 | -5.82447 | 34993 ft | 480 kts | 176° |
| 2026-05-05 15:18 | 42.49984 | -5.81248 | 34992 ft | 479 kts | 176° |
| 2026-05-05 15:19 | 42.43366 | -5.80052 | 34990 ft | 479 kts | 176° |
| 2026-05-05 15:19 | 42.36754 | -5.78859 | 34985 ft | 479 kts | 176° |
| 2026-05-05 15:20 | 42.30142 | -5.77668 | 34978 ft | 479 kts | 176° |
| 2026-05-05 15:20 | 42.23532 | -5.76484 | 34979 ft | 479 kts | 176° |
| 2026-05-05 15:21 | 42.16923 | -5.75300 | 34978 ft | 479 kts | 176° |
| 2026-05-05 15:21 | 42.10318 | -5.74118 | 34980 ft | 479 kts | 176° |
| 2026-05-05 15:22 | 42.03658 | -5.72928 | 34982 ft | 479 kts | 177° |
| 2026-05-05 15:22 | 41.97055 | -5.71752 | 34981 ft | 479 kts | 177° |
| 2026-05-05 15:23 | 41.90448 | -5.70578 | 34981 ft | 479 kts | 177° |
| 2026-05-05 15:23 | 41.83842 | -5.69406 | 34980 ft | 479 kts | 177° |
| 2026-05-05 15:24 | 41.77241 | -5.68237 | 34982 ft | 479 kts | 177° |
| 2026-05-05 15:24 | 41.70635 | -5.67070 | 34980 ft | 479 kts | 177° |
| 2026-05-05 15:25 | 41.64032 | -5.65905 | 34990 ft | 478 kts | 177° |
| 2026-05-05 15:25 | 41.57438 | -5.64718 | 34977 ft | 480 kts | 174° |
| 2026-05-05 15:25 | 41.54202 | -5.63491 | 34994 ft | 488 kts | 162° |
| 2026-05-05 15:26 | 41.51156 | -5.61424 | 34990 ft | 495 kts | 150° |
| 2026-05-05 15:26 | 41.45875 | -5.55470 | 34989 ft | 499 kts | 140° |
| 2026-05-05 15:27 | 41.40808 | -5.49135 | 34983 ft | 500 kts | 140° |
| 2026-05-05 15:27 | 41.35712 | -5.42839 | 34991 ft | 499 kts | 140° |
| 2026-05-05 15:28 | 41.30600 | -5.36599 | 34988 ft | 499 kts | 141° |
| 2026-05-05 15:28 | 41.25471 | -5.30375 | 34979 ft | 499 kts | 141° |
| 2026-05-05 15:29 | 41.20339 | -5.24163 | 34985 ft | 499 kts | 141° |
| 2026-05-05 15:29 | 41.15204 | -5.17958 | 34987 ft | 499 kts | 141° |
| 2026-05-05 15:30 | 41.10064 | -5.11761 | 34985 ft | 499 kts | 141° |
| 2026-05-05 15:30 | 41.04921 | -5.05573 | 34980 ft | 499 kts | 141° |
| 2026-05-05 15:31 | 40.99777 | -4.99398 | 34981 ft | 499 kts | 142° |
| 2026-05-05 15:31 | 40.94630 | -4.93231 | 34979 ft | 499 kts | 142° |
| 2026-05-05 15:32 | 40.89478 | -4.87074 | 34977 ft | 500 kts | 142° |
| 2026-05-05 15:32 | 40.84316 | -4.80917 | 34979 ft | 500 kts | 142° |
| 2026-05-05 15:33 | 40.79145 | -4.74764 | 34977 ft | 500 kts | 142° |
| 2026-05-05 15:33 | 40.73972 | -4.68621 | 34975 ft | 500 kts | 142° |
| 2026-05-05 15:34 | 40.68791 | -4.62483 | 34980 ft | 501 kts | 143° |
| 2026-05-05 15:34 | 40.63608 | -4.56354 | 34981 ft | 501 kts | 143° |
| 2026-05-05 15:35 | 40.58416 | -4.50228 | 34978 ft | 501 kts | 143° |
| 2026-05-05 15:35 | 40.53217 | -4.44107 | 34966 ft | 502 kts | 143° |
| 2026-05-05 15:36 | 40.48015 | -4.37995 | 34965 ft | 502 kts | 143° |
| 2026-05-05 15:36 | 40.42803 | -4.31884 | 34959 ft | 502 kts | 144° |
| 2026-05-05 15:37 | 40.37149 | -4.26883 | 34890 ft | 479 kts | 171° |
| 2026-05-05 15:37 | 40.33947 | -4.26026 | 34946 ft | 464 kts | 184° |
| 2026-05-05 15:37 | 40.30767 | -4.26134 | 34974 ft | 451 kts | 197° |
| 2026-05-05 15:38 | 40.24625 | -4.27602 | 34965 ft | 449 kts | 199° |
| 2026-05-05 15:38 | 40.18481 | -4.29013 | 34955 ft | 447 kts | 198° |
| 2026-05-05 15:39 | 40.12347 | -4.30364 | 34957 ft | 447 kts | 198° |
| 2026-05-05 15:39 | 40.06210 | -4.31708 | 34954 ft | 447 kts | 198° |
| 2026-05-05 15:40 | 40.00080 | -4.33052 | 34954 ft | 446 kts | 198° |
| 2026-05-05 15:40 | 39.93965 | -4.34378 | 34956 ft | 446 kts | 198° |
| 2026-05-05 15:41 | 39.87852 | -4.35691 | 34955 ft | 445 kts | 198° |
| 2026-05-05 15:41 | 39.81748 | -4.37002 | 34956 ft | 444 kts | 198° |
| 2026-05-05 15:42 | 39.75655 | -4.38309 | 34952 ft | 443 kts | 198° |
| 2026-05-05 15:42 | 39.69570 | -4.39611 | 34964 ft | 443 kts | 198° |
| 2026-05-05 15:43 | 39.63496 | -4.40909 | 34963 ft | 442 kts | 198° |
| 2026-05-05 15:43 | 39.57437 | -4.42201 | 34967 ft | 441 kts | 198° |
| 2026-05-05 15:44 | 39.51373 | -4.43493 | 34972 ft | 442 kts | 198° |
| 2026-05-05 15:44 | 39.45319 | -4.44777 | 34960 ft | 440 kts | 198° |
| 2026-05-05 15:45 | 39.39290 | -4.46056 | 34965 ft | 439 kts | 198° |
| 2026-05-05 15:45 | 39.33272 | -4.47331 | 34966 ft | 438 kts | 198° |
| 2026-05-05 15:46 | 39.27262 | -4.48602 | 34965 ft | 437 kts | 198° |
| 2026-05-05 15:46 | 39.21260 | -4.49868 | 34970 ft | 437 kts | 198° |
| 2026-05-05 15:47 | 39.15231 | -4.51137 | 34973 ft | 436 kts | 198° |
| 2026-05-05 15:47 | 39.09293 | -4.52386 | 34975 ft | 435 kts | 198° |
| 2026-05-05 15:48 | 39.03286 | -4.53647 | 34971 ft | 434 kts | 198° |
| 2026-05-05 15:48 | 38.97325 | -4.54896 | 34972 ft | 434 kts | 198° |
| 2026-05-05 15:49 | 38.91367 | -4.56143 | 34973 ft | 434 kts | 198° |
| 2026-05-05 15:49 | 38.85415 | -4.57387 | 34970 ft | 433 kts | 198° |
| 2026-05-05 15:50 | 38.79466 | -4.58627 | 34971 ft | 433 kts | 198° |
| 2026-05-05 15:50 | 38.73523 | -4.59864 | 34972 ft | 433 kts | 198° |
| 2026-05-05 15:51 | 38.67565 | -4.61102 | 34973 ft | 434 kts | 198° |
| 2026-05-05 15:51 | 38.61620 | -4.62334 | 34971 ft | 433 kts | 198° |
| 2026-05-05 15:52 | 38.55670 | -4.63567 | 34970 ft | 433 kts | 198° |
| 2026-05-05 15:52 | 38.49721 | -4.64796 | 34967 ft | 432 kts | 198° |
| 2026-05-05 15:53 | 38.43782 | -4.66022 | 34964 ft | 432 kts | 197° |
| 2026-05-05 15:53 | 38.37843 | -4.67246 | 34741 ft | 433 kts | 197° |
| 2026-05-05 15:53 | 38.34888 | -4.67852 | 34352 ft | 428 kts | 197° |
| 2026-05-05 15:54 | 38.31953 | -4.68453 | 33705 ft | 428 kts | 197° |
| 2026-05-05 15:54 | 38.29012 | -4.69058 | 33011 ft | 428 kts | 197° |
| 2026-05-05 15:54 | 38.27065 | -4.69459 | 32536 ft | 429 kts | 197° |
| 2026-05-05 15:54 | 38.24114 | -4.70066 | 31822 ft | 430 kts | 197° |
| 2026-05-05 15:55 | 38.21154 | -4.70674 | 31103 ft | 432 kts | 197° |
| 2026-05-05 15:55 | 38.18183 | -4.71284 | 30376 ft | 434 kts | 197° |
| 2026-05-05 15:55 | 38.15197 | -4.71897 | 29554 ft | 436 kts | 197° |
| 2026-05-05 15:55 | 38.12192 | -4.72513 | 28699 ft | 438 kts | 197° |
| 2026-05-05 15:56 | 38.09187 | -4.73126 | 28033 ft | 435 kts | 196° |
| 2026-05-05 15:56 | 38.06209 | -4.73730 | 27432 ft | 431 kts | 196° |
| 2026-05-05 15:56 | 38.03265 | -4.74327 | 26865 ft | 427 kts | 196° |
| 2026-05-05 15:56 | 38.00339 | -4.74922 | 26293 ft | 424 kts | 195° |
| 2026-05-05 15:57 | 37.97441 | -4.75512 | 25726 ft | 421 kts | 195° |
| 2026-05-05 15:57 | 37.94561 | -4.76099 | 25157 ft | 418 kts | 195° |
| 2026-05-05 15:57 | 37.91694 | -4.76681 | 24605 ft | 416 kts | 195° |
| 2026-05-05 15:57 | 37.88847 | -4.77261 | 24042 ft | 414 kts | 194° |
| 2026-05-05 15:58 | 37.86004 | -4.77841 | 23460 ft | 413 kts | 194° |
| 2026-05-05 15:58 | 37.83170 | -4.78416 | 22830 ft | 411 kts | 194° |
| 2026-05-05 15:58 | 37.80354 | -4.78987 | 22240 ft | 409 kts | 194° |
| 2026-05-05 15:58 | 37.77558 | -4.79552 | 21673 ft | 405 kts | 194° |
| 2026-05-05 15:59 | 37.74781 | -4.80111 | 21095 ft | 403 kts | 194° |
| 2026-05-05 15:59 | 37.72022 | -4.80667 | 20555 ft | 400 kts | 194° |
| 2026-05-05 15:59 | 37.69280 | -4.81221 | 20009 ft | 398 kts | 193° |
| 2026-05-05 15:59 | 37.66553 | -4.81772 | 19482 ft | 396 kts | 193° |
| 2026-05-05 16:00 | 37.63834 | -4.82322 | 18943 ft | 395 kts | 193° |
| 2026-05-05 16:00 | 37.61130 | -4.82868 | 18393 ft | 394 kts | 193° |
| 2026-05-05 16:00 | 37.58432 | -4.83412 | 17812 ft | 392 kts | 193° |
| 2026-05-05 16:00 | 37.55760 | -4.83949 | 17535 ft | 382 kts | 193° |
| 2026-05-05 16:01 | 37.53181 | -4.84464 | 17426 ft | 369 kts | 193° |
| 2026-05-05 16:01 | 37.50685 | -4.84965 | 17279 ft | 358 kts | 193° |
| 2026-05-05 16:01 | 37.48260 | -4.85453 | 17138 ft | 348 kts | 193° |
| 2026-05-05 16:01 | 37.45907 | -4.85927 | 16998 ft | 338 kts | 193° |
| 2026-05-05 16:02 | 37.43617 | -4.86386 | 16858 ft | 329 kts | 193° |
| 2026-05-05 16:02 | 37.41385 | -4.86834 | 16721 ft | 321 kts | 194° |
| 2026-05-05 16:02 | 37.39202 | -4.87268 | 16484 ft | 316 kts | 194° |
| 2026-05-05 16:02 | 37.37042 | -4.87703 | 16166 ft | 314 kts | 194° |
| 2026-05-05 16:03 | 37.34887 | -4.88138 | 15851 ft | 312 kts | 194° |
| 2026-05-05 16:03 | 37.32753 | -4.88568 | 15578 ft | 309 kts | 194° |
| 2026-05-05 16:03 | 37.30629 | -4.88995 | 15271 ft | 308 kts | 193° |
| 2026-05-05 16:03 | 37.28515 | -4.89421 | 14959 ft | 308 kts | 193° |
| 2026-05-05 16:04 | 37.26399 | -4.89846 | 14639 ft | 308 kts | 193° |
| 2026-05-05 16:04 | 37.24288 | -4.90270 | 14315 ft | 308 kts | 193° |
| 2026-05-05 16:04 | 37.22169 | -4.90694 | 13995 ft | 308 kts | 193° |
| 2026-05-05 16:04 | 37.20058 | -4.91116 | 13703 ft | 307 kts | 191° |
| 2026-05-05 16:05 | 37.17925 | -4.91060 | 13453 ft | 309 kts | 172° |
| 2026-05-05 16:05 | 37.15899 | -4.90147 | 13167 ft | 313 kts | 153° |
| 2026-05-05 16:05 | 37.14181 | -4.88455 | 12859 ft | 317 kts | 135° |
| 2026-05-05 16:05 | 37.12755 | -4.86350 | 12541 ft | 317 kts | 131° |
| 2026-05-05 16:06 | 37.11384 | -4.84184 | 12229 ft | 316 kts | 130° |
| 2026-05-05 16:06 | 37.10024 | -4.82019 | 11920 ft | 316 kts | 130° |
| 2026-05-05 16:06 | 37.08670 | -4.79857 | 11608 ft | 315 kts | 130° |
| 2026-05-05 16:06 | 37.07319 | -4.77699 | 11301 ft | 314 kts | 130° |
| 2026-05-05 16:07 | 37.05973 | -4.75547 | 11002 ft | 313 kts | 130° |
| 2026-05-05 16:07 | 37.04631 | -4.73403 | 10699 ft | 313 kts | 130° |
| 2026-05-05 16:07 | 37.03289 | -4.71262 | 10395 ft | 313 kts | 130° |
| 2026-05-05 16:07 | 37.01950 | -4.69128 | 10174 ft | 310 kts | 130° |
| 2026-05-05 16:08 | 37.00633 | -4.67029 | 10036 ft | 303 kts | 130° |
| 2026-05-05 16:08 | 36.99414 | -4.65096 | 9818 ft | 301 kts | 132° |
| 2026-05-05 16:08 | 36.98192 | -4.63309 | 9550 ft | 301 kts | 133° |
| 2026-05-05 16:08 | 36.96825 | -4.61330 | 9251 ft | 301 kts | 133° |
| 2026-05-05 16:09 | 36.95443 | -4.59356 | 8962 ft | 301 kts | 133° |
| 2026-05-05 16:09 | 36.94057 | -4.57410 | 8673 ft | 300 kts | 133° |
| 2026-05-05 16:09 | 36.92664 | -4.55467 | 8382 ft | 299 kts | 133° |
| 2026-05-05 16:09 | 36.91279 | -4.53539 | 8109 ft | 297 kts | 133° |
| 2026-05-05 16:10 | 36.89916 | -4.51632 | 7992 ft | 290 kts | 133° |
| 2026-05-05 16:10 | 36.88591 | -4.49775 | 7967 ft | 283 kts | 133° |
| 2026-05-05 16:10 | 36.87293 | -4.47954 | 7761 ft | 280 kts | 133° |
| 2026-05-05 16:10 | 36.86001 | -4.46142 | 7522 ft | 279 kts | 133° |
| 2026-05-05 16:11 | 36.84713 | -4.44341 | 7261 ft | 277 kts | 133° |
| 2026-05-05 16:11 | 36.80856 | -4.39034 | 6525 ft | 273 kts | 133° |
| 2026-05-05 16:12 | 36.79570 | -4.37297 | 6294 ft | 272 kts | 133° |
| 2026-05-05 16:12 | 36.76982 | -4.33838 | 5878 ft | 267 kts | 133° |
| 2026-05-05 16:13 | 36.73320 | -4.28988 | 5352 ft | 242 kts | 133° |
| 2026-05-05 16:13 | 36.72186 | -4.27489 | 5196 ft | 233 kts | 133° |
| 2026-05-05 16:13 | 36.71087 | -4.26033 | 5060 ft | 229 kts | 133° |
| 2026-05-05 16:14 | 36.68965 | -4.23224 | 4712 ft | 221 kts | 133° |
| 2026-05-05 16:14 | 36.66831 | -4.20421 | 4495 ft | 218 kts | 133° |
| 2026-05-05 16:15 | 36.64808 | -4.17731 | 4488 ft | 211 kts | 133° |
| 2026-05-05 16:15 | 36.62346 | -4.15921 | 4483 ft | 204 kts | 175° |
| 2026-05-05 16:16 | 36.59930 | -4.17007 | 4375 ft | 181 kts | 219° |
| 2026-05-05 16:16 | 36.57888 | -4.18727 | 4152 ft | 173 kts | 220° |
| 2026-05-05 16:17 | 36.55901 | -4.20412 | 4184 ft | 175 kts | 221° |
| 2026-05-05 16:17 | 36.54898 | -4.21254 | 4200 ft | 171 kts | 220° |
| 2026-05-05 16:18 | 36.52984 | -4.23033 | 4179 ft | 169 kts | 230° |
| 2026-05-05 16:18 | 36.52129 | -4.24043 | 4169 ft | 170 kts | 230° |
| 2026-05-05 16:18 | 36.51283 | -4.26479 | 4162 ft | 162 kts | 296° |
| 2026-05-05 16:19 | 36.51899 | -4.27651 | 4221 ft | 166 kts | 306° |
| 2026-05-05 16:19 | 36.52614 | -4.28851 | 4086 ft | 178 kts | 308° |
| 2026-05-05 16:19 | 36.54252 | -4.31272 | 3601 ft | 179 kts | 310° |
| 2026-05-05 16:20 | 36.55826 | -4.33497 | 3143 ft | 163 kts | 310° |
| 2026-05-05 16:20 | 36.57249 | -4.35501 | 2744 ft | 142 kts | 309° |
| 2026-05-05 16:21 | 36.58501 | -4.37265 | 2386 ft | 142 kts | 309° |
| 2026-05-05 16:22 | 36.60494 | -4.40068 | 1795 ft | 140 kts | 308° |
| 2026-05-05 16:22 | 36.61763 | -4.41854 | 1427 ft | 139 kts | 308° |
| 2026-05-05 16:23 | 36.63057 | -4.43674 | 1077 ft | 142 kts | 307° |
| 2026-05-05 16:23 | 36.63721 | -4.44611 | 899 ft | 145 kts | 308° |
| 2026-05-05 16:23 | 36.65074 | -4.46511 | 517 ft | 145 kts | 313° |
| 2026-05-05 16:24 | 36.65737 | -4.47443 | 340 ft | 143 kts | 313° |
| 2026-05-05 16:24 | 36.66378 | -4.48361 | 132 ft | 138 kts | 314° |
| 2026-05-05 16:24 | 36.67445 | -4.49848 | 35 ft | 84 kts | 312° |
| 2026-05-05 16:25 | 36.67702 | -4.50164 | 35 ft | 33 kts | 332° |
| 2026-05-05 16:25 | 36.67887 | -4.50204 | 34 ft | 8 kts | 75° |
| 2026-05-05 16:25 | 36.67866 | -4.50142 | 34 ft | 9 kts | 129° |
| 2026-05-05 16:26 | 36.67756 | -4.49990 | 34 ft | 14 kts | 131° |
| 2026-05-05 16:26 | 36.67621 | -4.49798 | 34 ft | 15 kts | 131° |
| 2026-05-05 16:27 | 36.67554 | -4.49703 | 34 ft | 15 kts | 131° |
| 2026-05-05 16:27 | 36.67501 | -4.49626 | 34 ft | 11 kts | 131° |
| 2026-05-05 16:27 | 36.67446 | -4.49549 | 34 ft | 13 kts | 131° |
| 2026-05-05 16:27 | 36.67379 | -4.49459 | 34 ft | 15 kts | 132° |
| 2026-05-05 16:28 | 36.67304 | -4.49355 | 34 ft | 17 kts | 131° |
| 2026-05-05 16:28 | 36.67228 | -4.49248 | 34 ft | 12 kts | 130° |
| 2026-05-05 16:28 | 36.67187 | -4.49189 | 34 ft | 9 kts | 133° |
| 2026-05-05 16:28 | 36.67143 | -4.49128 | 34 ft | 10 kts | 126° |
| 2026-05-05 16:29 | 36.67154 | -4.49050 | 34 ft | 10 kts | 25° |
| 2026-05-05 16:29 | 36.67211 | -4.49044 | 34 ft | 7 kts | 10° |
| 2026-05-05 16:29 | 36.67243 | -4.49036 | 34 ft | 3 kts | 12° |
| 2026-05-05 16:29 | 36.67261 | -4.49031 | 33 ft | 0 kts | 13° |